Terminal Aerodrome Forecast
Issued by NWS

Home | Current Version | Previous Version | Text Only | Print | Product List | Glossary On
Versions: 1 2 3 4 5 6 7 8 9 10 11 12 13 14 15 16 17 18 19 20 21 22 23 24 25
000
FTAK31 PAFA 210113 AAA
TAFABT
TAF AMD
PABT 210113Z 2101/2124 07008KT P6SM -SN SCT030 BKN050 OVC070
      TEMPO 2105/2109 2SM -SHSN BKN025=

USA.gov is the U.S. government's official web portal to all federal, state and local government web resources and services.